createdAt,value
2018-04-26T00:00:43.954Z,86.90
2018-04-26T00:01:44.204Z,86.42
2018-04-26T00:02:44.469Z,87.27
2018-04-26T00:03:44.671Z,87.75
2018-04-26T00:04:44.878Z,86.80
2018-04-26T00:05:45.123Z,86.42
2018-04-26T00:06:45.355Z,87.37
2018-04-26T00:07:45.590Z,86.99
2018-04-26T00:08:45.830Z,87.46
2018-04-26T00:09:46.069Z,87.56
2018-04-26T00:10:46.324Z,88.42
2018-04-26T00:11:46.545Z,87.85
2018-04-26T00:12:46.774Z,87.18
2018-04-26T00:13:47.033Z,88.04
2018-04-26T00:14:47.238Z,87.65
2018-04-26T00:15:47.532Z,87.37
2018-04-26T00:16:47.698Z,86.80
2018-04-26T00:17:47.934Z,88.32
2018-04-26T00:18:48.189Z,86.80
2018-04-26T00:19:48.434Z,86.22
2018-04-26T00:20:48.653Z,86.32
2018-04-26T00:21:48.878Z,86.32
2018-04-26T00:22:49.127Z,85.56
2018-04-26T00:23:49.371Z,84.89
2018-04-26T00:24:49.593Z,84.70
2018-04-26T00:25:49.847Z,84.13
2018-04-26T00:26:50.083Z,84.23
2018-04-26T00:27:50.363Z,83.56
2018-04-26T00:28:50.581Z,83.75
2018-04-26T00:29:50.790Z,83.28
2018-04-26T00:30:51.036Z,83.47
2018-04-26T00:31:51.274Z,83.65
2018-04-26T00:32:51.511Z,83.56
2018-04-26T00:33:51.785Z,83.94
2018-04-26T00:34:52.007Z,83.75
2018-04-26T00:35:52.220Z,83.65
2018-04-26T00:36:52.453Z,84.23
2018-04-26T00:37:52.701Z,84.13
2018-04-26T00:38:52.928Z,84.61
2018-04-26T00:39:53.181Z,84.33
2018-04-26T00:40:53.419Z,84.70
2018-04-26T00:41:53.657Z,84.33
2018-04-26T00:42:53.892Z,85.08
2018-04-26T00:43:54.130Z,84.89
2018-04-26T00:44:54.350Z,85.56
2018-04-26T00:45:54.601Z,84.56
2018-04-26T00:46:54.822Z,84.76
2018-04-26T00:47:55.117Z,84.85
2018-04-26T00:48:55.359Z,84.89
2018-04-26T00:49:55.555Z,84.85
2018-04-26T00:50:55.799Z,85.18
2018-04-26T00:51:56.021Z,85.24
2018-04-26T00:52:56.241Z,85.52
2018-04-26T00:53:56.470Z,85.14
2018-04-26T00:54:56.755Z,85.04
2018-04-26T00:55:56.983Z,84.76
2018-04-26T00:56:57.197Z,85.42
2018-04-26T00:57:57.437Z,86.38
2018-04-26T00:58:57.657Z,85.61
2018-04-26T00:59:57.902Z,85.99
2018-04-26T01:00:58.130Z,85.71
2018-04-26T01:01:58.394Z,86.18
2018-04-26T01:02:58.601Z,84.95
2018-04-26T01:03:58.821Z,86.18
2018-04-26T01:04:59.071Z,86.66
2018-04-26T01:05:59.311Z,87.42
2018-04-26T01:06:59.511Z,87.28
2018-04-26T01:07:59.769Z,87.47
2018-04-26T01:08:59.976Z,88.23
2018-04-26T01:10:00.202Z,88.33
2018-04-26T01:11:00.436Z,88.23
2018-04-26T01:12:00.687Z,87.76
2018-04-26T01:13:00.902Z,87.85
2018-04-26T01:14:01.150Z,88.04
2018-04-26T01:15:01.355Z,88.04
2018-04-26T01:16:01.583Z,88.71
2018-04-26T01:17:01.808Z,88.13
2018-04-26T01:18:02.058Z,88.23
2018-04-26T01:19:02.295Z,87.90
2018-04-26T01:20:02.533Z,88.04
2018-04-26T01:21:02.741Z,87.28
2018-04-26T01:22:02.976Z,87.47
2018-04-26T01:23:03.222Z,87.43
2018-04-26T01:24:03.454Z,87.57
2018-04-26T01:25:03.674Z,87.85
2018-04-26T01:26:03.910Z,88.09
2018-04-26T01:27:04.171Z,88.19
2018-04-26T01:28:04.402Z,87.34
2018-04-26T01:29:04.639Z,87.34
2018-04-26T01:30:04.874Z,86.76
2018-04-26T01:31:05.125Z,87.43
2018-04-26T01:32:05.363Z,87.52
2018-04-26T01:33:05.566Z,87.34
2018-04-26T01:34:05.805Z,87.62
2018-04-26T01:35:06.035Z,87.14
2018-04-26T01:36:06.277Z,87.34
2018-04-26T01:37:06.541Z,87.43
2018-04-26T01:38:06.762Z,87.43
2018-04-26T01:39:06.968Z,88.00
2018-04-26T01:40:07.202Z,88.09
2018-04-26T01:41:07.433Z,87.71
2018-04-26T01:42:07.662Z,87.90
2018-04-26T01:43:07.891Z,88.53
2018-04-26T01:44:08.146Z,88.71
2018-04-26T01:45:08.368Z,89.47
2018-04-26T01:46:08.586Z,90.33
2018-04-26T01:47:08.822Z,88.38
2018-04-26T01:48:09.037Z,88.67
2018-04-26T01:49:09.268Z,88.76
2018-04-26T01:50:09.506Z,86.57
2018-04-26T01:51:09.751Z,85.81
2018-04-26T01:52:09.987Z,85.81
2018-04-26T01:53:10.266Z,86.19
2018-04-26T01:54:10.434Z,86.10
2018-04-26T01:55:10.687Z,85.62
2018-04-26T01:56:10.911Z,85.72
2018-04-26T01:57:11.129Z,84.29
2018-04-26T01:58:11.364Z,83.25
2018-04-26T01:59:11.626Z,82.49
2018-04-26T02:00:11.875Z,82.87
2018-04-26T02:01:12.097Z,81.82
2018-04-26T02:02:12.327Z,81.44
2018-04-26T02:03:12.565Z,81.44
2018-04-26T02:04:12.776Z,81.16
2018-04-26T02:05:13.035Z,81.16
2018-04-26T02:06:13.250Z,81.82
2018-04-26T02:07:13.497Z,81.73
2018-04-26T02:08:13.710Z,82.01
2018-04-26T02:09:13.937Z,82.58
2018-04-26T02:10:14.163Z,82.87
2018-04-26T02:11:14.400Z,83.25
2018-04-26T02:12:14.634Z,84.10
2018-04-26T02:13:14.869Z,84.44
2018-04-26T02:14:15.129Z,85.49
2018-04-26T02:15:15.318Z,85.11
2018-04-26T02:16:15.540Z,85.86
2018-04-26T02:17:15.774Z,86.15
2018-04-26T02:18:16.001Z,86.05
2018-04-26T02:19:16.259Z,86.15
2018-04-26T02:20:16.486Z,85.39
2018-04-26T02:21:16.716Z,85.20
2018-04-26T02:22:16.958Z,84.63
2018-04-26T02:23:17.214Z,84.91
2018-04-26T02:24:17.426Z,84.06
2018-04-26T02:25:17.648Z,84.44
2018-04-26T02:26:17.892Z,84.16
2018-04-26T02:27:18.144Z,82.26
2018-04-26T02:28:18.377Z,81.68
2018-04-26T02:29:18.599Z,80.93
2018-04-26T02:30:18.819Z,80.93
2018-04-26T02:31:19.113Z,81.59
2018-04-26T02:32:19.301Z,81.12
2018-04-26T02:33:19.544Z,80.83
2018-04-26T02:34:19.825Z,80.74
2018-04-26T02:35:20.017Z,79.79
2018-04-26T02:36:20.262Z,79.69
2018-04-26T02:37:20.476Z,79.12
2018-04-26T02:38:20.705Z,79.12
2018-04-26T02:39:20.942Z,79.03
2018-04-26T02:40:21.199Z,78.45
2018-04-26T02:41:21.401Z,79.79
2018-04-26T02:42:21.624Z,79.79
2018-04-26T02:43:21.874Z,80.26
2018-04-26T02:44:22.114Z,80.35
2018-04-26T02:45:22.357Z,80.35
2018-04-26T02:46:22.556Z,80.16
2018-04-26T02:47:22.783Z,80.55
2018-04-26T02:48:23.060Z,80.16
2018-04-26T02:49:23.262Z,79.60
2018-04-26T02:50:23.494Z,79.03
2018-04-26T02:51:23.740Z,78.74
2018-04-26T02:52:23.963Z,78.74
2018-04-26T02:53:24.183Z,78.17
2018-04-26T02:54:24.424Z,77.89
2018-04-26T02:55:24.669Z,77.89
2018-04-26T02:56:24.900Z,78.08
2018-04-26T02:57:25.116Z,77.60
2018-04-26T02:58:25.348Z,76.93
2018-04-26T02:59:25.614Z,77.22
2018-04-26T03:00:25.826Z,77.31
2018-04-26T03:01:26.060Z,77.12
2018-04-26T03:02:26.291Z,76.65
2018-04-26T03:03:26.559Z,76.37
2018-04-26T03:04:26.793Z,76.18
2018-04-26T03:05:27.013Z,75.84
2018-04-26T03:06:27.255Z,76.08
2018-04-26T03:07:27.497Z,76.37
2018-04-26T03:08:27.706Z,77.41
2018-04-26T03:09:27.940Z,76.65
2018-04-26T03:10:28.182Z,77.60
2018-04-26T03:11:28.397Z,78.36
2018-04-26T03:12:28.643Z,78.27
2018-04-26T03:13:28.875Z,78.36
2018-04-26T03:14:29.099Z,78.27
2018-04-26T03:15:29.422Z,78.64
2018-04-26T03:16:29.562Z,78.64
2018-04-26T03:17:29.829Z,78.64
2018-04-26T03:18:30.069Z,78.45
2018-04-26T03:19:30.305Z,79.27
2018-04-26T03:20:30.548Z,79.41
2018-04-26T03:21:30.755Z,78.83
2018-04-26T03:22:30.987Z,78.45
2018-04-26T03:23:31.229Z,79.03
2018-04-26T03:24:31.469Z,79.12
2018-04-26T03:25:31.718Z,79.55
2018-04-26T03:26:31.941Z,79.69
2018-04-26T03:27:32.203Z,79.03
2018-04-26T03:28:32.375Z,79.22
2018-04-26T03:29:32.662Z,79.69
2018-04-26T03:30:32.867Z,79.74
2018-04-26T03:31:33.104Z,79.94
2018-04-26T03:32:33.337Z,79.65
2018-04-26T03:33:33.590Z,79.74
2018-04-26T03:34:33.818Z,80.41
2018-04-26T03:35:34.036Z,80.32
2018-04-26T03:36:34.269Z,80.41
2018-04-26T03:37:34.492Z,81.17
2018-04-26T03:38:34.724Z,80.41
2018-04-26T03:39:34.951Z,79.84
2018-04-26T03:40:35.199Z,79.46
2018-04-26T03:41:35.436Z,79.55
2018-04-26T03:42:35.665Z,79.65
2018-04-26T03:43:35.908Z,79.84
2018-04-26T03:44:36.127Z,79.74
2018-04-26T03:45:36.378Z,80.22
2018-04-26T03:46:36.583Z,80.03
2018-04-26T03:47:36.835Z,79.94
2018-04-26T03:48:37.053Z,80.51
2018-04-26T03:49:37.300Z,80.60
2018-04-26T03:50:37.559Z,80.98
2018-04-26T03:51:37.751Z,80.69
2018-04-26T03:52:38.010Z,80.98
2018-04-26T03:53:38.233Z,80.60
2018-04-26T03:54:38.475Z,80.98
2018-04-26T03:55:38.708Z,80.69
2018-04-26T03:56:38.911Z,80.98
2018-04-26T03:57:39.152Z,81.07
2018-04-26T03:58:39.435Z,81.26
2018-04-26T03:59:39.648Z,81.65
2018-04-26T04:00:39.880Z,81.65
2018-04-26T04:01:40.141Z,81.65
2018-04-26T04:02:40.346Z,81.93
2018-04-26T04:03:40.574Z,81.65
2018-04-26T04:04:40.867Z,81.36
2018-04-26T04:05:41.086Z,80.41
2018-04-26T04:06:41.318Z,80.98
2018-04-26T04:07:41.548Z,81.07
2018-04-26T04:08:41.754Z,80.88
2018-04-26T04:09:42.027Z,81.07
2018-04-26T04:10:42.242Z,80.88
2018-04-26T04:11:42.469Z,81.07
2018-04-26T04:12:42.701Z,80.88
2018-04-26T04:13:42.959Z,80.79
2018-04-26T04:14:43.162Z,80.88
2018-04-26T04:15:43.391Z,80.98
2018-04-26T04:16:43.645Z,80.79
2018-04-26T04:17:43.882Z,80.88
2018-04-26T04:18:44.112Z,80.60
2018-04-26T04:19:44.351Z,80.51
2018-04-26T04:20:44.566Z,80.79
2018-04-26T04:21:44.824Z,81.74
2018-04-26T04:22:45.048Z,81.07
2018-04-26T04:23:45.267Z,81.65
2018-04-26T04:24:45.498Z,81.26
2018-04-26T04:25:45.729Z,81.65
2018-04-26T04:26:45.992Z,81.65
2018-04-26T04:27:46.228Z,81.55
2018-04-26T04:28:46.462Z,82.59
2018-04-26T04:29:46.701Z,81.93
2018-04-26T04:30:46.921Z,82.50
2018-04-26T04:31:47.186Z,82.40
2018-04-26T04:32:47.395Z,82.69
2018-04-26T04:33:47.627Z,83.26
2018-04-26T04:34:47.862Z,83.07
2018-04-26T04:35:48.085Z,82.69
2018-04-26T04:36:48.313Z,82.69
2018-04-26T04:37:48.560Z,82.59
2018-04-26T04:38:48.800Z,82.59
2018-04-26T04:39:49.082Z,83.16
2018-04-26T04:40:49.280Z,83.16
2018-04-26T04:41:49.518Z,82.88
2018-04-26T04:42:49.774Z,82.97
2018-04-26T04:43:49.982Z,82.31
2018-04-26T04:44:50.216Z,82.40
2018-04-26T04:45:50.447Z,82.40
2018-04-26T04:46:50.706Z,82.50
2018-04-26T04:47:50.920Z,82.59
2018-04-26T04:48:51.143Z,82.12
2018-04-26T04:49:51.379Z,82.78
2018-04-26T04:50:51.633Z,82.12
2018-04-26T04:51:51.888Z,82.59
2018-04-26T04:52:52.112Z,82.31
2018-04-26T04:53:52.353Z,82.50
2018-04-26T04:54:52.577Z,82.69
2018-04-26T04:55:52.804Z,82.40
2018-04-26T04:56:53.038Z,82.21
2018-04-26T04:57:53.275Z,82.59
2018-04-26T04:58:53.502Z,82.40
2018-04-26T04:59:53.729Z,82.59
2018-04-26T05:00:53.965Z,81.93
2018-04-26T05:01:54.274Z,81.84
2018-04-26T05:02:54.444Z,81.78
2018-04-26T05:03:54.681Z,81.59
2018-04-26T05:04:54.918Z,81.68
2018-04-26T05:05:55.143Z,81.21
2018-04-26T05:06:55.373Z,80.93
2018-04-26T05:07:55.610Z,81.45
2018-04-26T05:08:55.857Z,81.59
2018-04-26T05:09:56.097Z,81.65
2018-04-26T05:10:56.316Z,81.55
2018-04-26T05:11:56.569Z,81.87
2018-04-26T05:12:56.836Z,81.40
2018-04-26T05:13:57.028Z,81.59
2018-04-26T05:14:57.269Z,81.21
2018-04-26T05:15:57.485Z,81.12
2018-04-26T05:16:57.741Z,81.12
2018-04-26T05:17:57.974Z,81.40
2018-04-26T05:18:58.262Z,80.83
2018-04-26T05:19:58.501Z,80.74
2018-04-26T05:20:58.719Z,80.74
2018-04-26T05:21:58.965Z,81.02
2018-04-26T05:22:59.191Z,80.45
2018-04-26T05:23:59.405Z,81.12
2018-04-26T05:24:59.642Z,80.93
2018-04-26T05:25:59.870Z,79.97
2018-04-26T05:27:00.138Z,79.97
2018-04-26T05:28:00.342Z,79.60
2018-04-26T05:29:00.601Z,79.97
2018-04-26T05:30:00.838Z,79.97
2018-04-26T05:31:01.041Z,79.79
2018-04-26T05:32:01.282Z,79.79
2018-04-26T05:33:01.522Z,79.69
2018-04-26T05:34:01.763Z,79.88
2018-04-26T05:35:02.005Z,79.41
2018-04-26T05:36:02.247Z,79.41
2018-04-26T05:37:02.481Z,79.06
2018-04-26T05:38:02.709Z,78.97
2018-04-26T05:39:02.932Z,79.12
2018-04-26T05:40:03.162Z,78.69
2018-04-26T05:41:03.427Z,78.74
2018-04-26T05:42:03.669Z,78.97
2018-04-26T05:43:03.890Z,79.35
2018-04-26T05:44:04.136Z,79.73
2018-04-26T05:45:04.329Z,78.97
2018-04-26T05:46:04.569Z,79.06
2018-04-26T05:47:04.888Z,79.16
2018-04-26T05:48:05.079Z,79.92
2018-04-26T05:49:05.325Z,79.63
2018-04-26T05:50:05.540Z,79.83
2018-04-26T05:51:05.876Z,79.63
2018-04-26T05:52:06.024Z,79.83
2018-04-26T05:53:06.261Z,79.73
2018-04-26T05:54:06.497Z,79.83
2018-04-26T05:55:06.736Z,80.02
2018-04-26T05:56:06.974Z,78.88
2018-04-26T05:57:07.224Z,78.78
2018-04-26T05:58:07.426Z,78.69
2018-04-26T05:59:07.685Z,77.92
2018-04-26T06:00:07.914Z,78.97
2018-04-26T06:01:08.133Z,78.50
2018-04-26T06:02:08.368Z,78.50
2018-04-26T06:03:08.603Z,77.73
2018-04-26T06:04:08.828Z,77.92
2018-04-26T06:05:09.083Z,77.73
2018-04-26T06:06:09.284Z,77.45
2018-04-26T06:07:09.530Z,77.49
2018-04-26T06:08:09.767Z,76.54
2018-04-26T06:09:10.010Z,76.54
2018-04-26T06:10:10.272Z,75.96
2018-04-26T06:11:10.469Z,76.25
2018-04-26T06:12:10.739Z,75.96
2018-04-26T06:13:11.010Z,75.11
2018-04-26T06:14:18.793Z,75.40
2018-04-26T06:15:11.477Z,75.81
2018-04-26T06:16:11.715Z,75.15
2018-04-26T06:17:12.047Z,75.05
2018-04-26T06:18:12.191Z,74.96
2018-04-26T06:19:12.430Z,75.72
2018-04-26T06:20:12.669Z,75.68
2018-04-26T06:21:12.934Z,75.78
2018-04-26T06:22:13.151Z,75.96
2018-04-26T06:23:21.041Z,76.25
2018-04-26T06:24:13.677Z,75.49
2018-04-26T06:25:13.919Z,76.29
2018-04-26T06:26:14.185Z,75.72
2018-04-26T06:27:14.396Z,74.58
2018-04-26T06:28:14.631Z,74.96
2018-04-26T06:29:14.874Z,74.96
2018-04-26T06:30:15.111Z,74.96
2018-04-26T06:31:15.367Z,74.96
2018-04-26T06:32:15.596Z,74.77
2018-04-26T06:33:25.357Z,74.96
2018-04-26T06:34:23.872Z,74.96
2018-04-26T06:35:25.144Z,75.72
2018-04-26T06:36:16.887Z,75.43
2018-04-26T06:37:17.124Z,74.77
2018-04-26T06:38:27.113Z,75.15
2018-04-26T06:39:26.225Z,76.29
2018-04-26T06:40:26.919Z,76.20
2018-04-26T06:41:26.936Z,75.62
2018-04-26T06:42:18.746Z,75.72
2018-04-26T06:43:18.907Z,75.53
2018-04-26T06:44:26.801Z,75.72
2018-04-26T06:45:28.190Z,74.27
2018-04-26T06:46:28.969Z,71.98
2018-04-26T06:47:29.000Z,73.10
2018-04-26T06:48:29.064Z,74.14
2018-04-26T06:49:28.441Z,74.24
2018-04-26T06:50:21.181Z,74.14
2018-04-26T06:51:32.570Z,73.95
2018-04-26T06:52:21.999Z,74.90
2018-04-26T06:53:22.124Z,74.71
2018-04-26T06:54:31.120Z,74.90
2018-04-26T06:55:22.656Z,75.09
2018-04-26T06:56:31.545Z,74.62
2018-04-26T06:57:23.530Z,74.14
2018-04-26T06:58:31.264Z,74.24
2018-04-26T06:59:23.938Z,74.14
2018-04-26T07:00:24.179Z,75.28
2018-04-26T07:01:24.427Z,75.76
2018-04-26T07:02:24.653Z,76.23
2018-04-26T07:03:24.893Z,75.76
2018-04-26T07:04:25.128Z,74.80
2018-04-26T07:05:25.370Z,74.90
2018-04-26T07:06:25.611Z,74.90
2018-04-26T07:07:25.853Z,74.99
2018-04-26T07:08:26.180Z,75.95
2018-04-26T07:09:26.411Z,76.14
2018-04-26T07:10:26.568Z,75.72
2018-04-26T07:11:26.801Z,75.81
2018-04-26T07:12:27.038Z,75.34
2018-04-26T07:13:27.281Z,76.10
2018-04-26T07:14:27.518Z,76.23
2018-04-26T07:15:27.752Z,77.43
2018-04-26T07:16:28.003Z,76.90
2018-04-26T07:17:28.234Z,77.47
2018-04-26T07:18:28.474Z,76.61
2018-04-26T07:19:28.706Z,76.33
2018-04-26T07:20:28.943Z,76.04
2018-04-26T07:21:29.187Z,75.67
2018-04-26T07:22:29.423Z,74.80
2018-04-26T07:23:29.665Z,73.85
2018-04-26T07:24:29.905Z,74.04
2018-04-26T07:25:30.144Z,74.62
2018-04-26T07:26:30.384Z,73.89
2018-04-26T07:27:30.624Z,70.38
2018-04-26T07:28:30.864Z,66.94
2018-04-26T07:29:31.105Z,65.93
2018-04-26T07:30:31.347Z,66.09
2018-04-26T07:31:31.591Z,67.58
2018-04-26T07:32:31.831Z,68.88
2018-04-26T07:33:32.076Z,69.99
2018-04-26T07:34:32.318Z,70.75
2018-04-26T07:35:32.562Z,71.89
2018-04-26T07:36:32.801Z,71.03
2018-04-26T07:37:33.043Z,69.93
2018-04-26T07:38:33.284Z,67.55
2018-04-26T07:39:33.524Z,68.98
2018-04-26T07:40:33.767Z,68.69
2018-04-26T07:41:34.009Z,68.21
2018-04-26T07:42:34.248Z,65.77
2018-04-26T07:43:34.489Z,61.89
2018-04-26T07:44:34.728Z,59.18
2018-04-26T07:45:34.971Z,58.51
2018-04-26T07:46:35.214Z,56.21
2018-04-26T07:47:35.453Z,55.00
2018-04-26T07:48:35.696Z,57.21
2018-04-26T07:49:35.940Z,58.54
2018-04-26T07:50:36.182Z,60.11
2018-04-26T07:51:36.481Z,62.46
2018-04-26T07:52:36.688Z,65.13
2018-04-26T07:53:36.934Z,66.50
2018-04-26T07:54:37.178Z,67.74
2018-04-26T07:55:37.421Z,68.98
2018-04-26T07:56:37.664Z,68.91
2018-04-26T07:57:37.907Z,66.02
2018-04-26T07:58:38.150Z,65.99
2018-04-26T07:59:38.393Z,65.04
2018-04-26T08:00:38.630Z,66.24
2018-04-26T08:01:39.047Z,66.63
2018-04-26T08:02:39.126Z,67.26
2018-04-26T08:03:39.369Z,67.64
2018-04-26T08:04:39.603Z,68.05
2018-04-26T08:05:39.847Z,66.75
2018-04-26T08:06:40.091Z,67.04
2018-04-26T08:07:40.334Z,65.61
2018-04-26T08:08:40.574Z,65.61
2018-04-26T08:09:40.816Z,66.15
2018-04-26T08:10:41.059Z,65.96
2018-04-26T08:11:41.378Z,64.02
2018-04-26T08:12:41.547Z,63.45
2018-04-26T08:13:41.791Z,60.07
2018-04-26T08:14:42.041Z,58.48
2018-04-26T08:15:42.280Z,57.36
2018-04-26T08:16:42.522Z,56.69
2018-04-26T08:17:42.765Z,56.79
2018-04-26T08:18:43.009Z,57.71
2018-04-26T08:19:43.304Z,57.01
2018-04-26T08:20:43.497Z,54.55
2018-04-26T08:21:43.743Z,52.40
2018-04-26T08:22:43.986Z,52.78
2018-04-26T08:23:44.228Z,51.37
2018-04-26T08:24:44.474Z,48.85
2018-04-26T08:25:44.719Z,52.96
2018-04-26T08:26:44.963Z,54.36
2018-04-26T08:27:45.208Z,52.25
2018-04-26T08:28:45.454Z,51.25
2018-04-26T08:29:45.698Z,48.61
2018-04-26T08:30:45.964Z,46.55
2018-04-26T08:31:46.188Z,49.57
2018-04-26T08:32:46.434Z,53.73
2018-04-26T08:33:46.719Z,56.54
2018-04-26T08:34:46.968Z,58.80
2018-04-26T08:35:47.217Z,59.89
2018-04-26T08:36:47.475Z,61.70
2018-04-26T08:37:47.714Z,64.15
2018-04-26T08:38:47.957Z,65.10
2018-04-26T08:39:48.204Z,65.77
2018-04-26T08:40:48.450Z,66.21
2018-04-26T08:41:48.694Z,65.96
2018-04-26T08:42:49.006Z,62.84
2018-04-26T08:43:49.268Z,57.26
2018-04-26T08:44:49.513Z,55.13
2018-04-26T08:45:49.760Z,54.49
2018-04-26T08:46:50.013Z,54.59
2018-04-26T08:47:50.251Z,53.37
2018-04-26T08:48:50.497Z,53.28
2018-04-26T08:49:50.744Z,52.06
2018-04-26T08:50:50.993Z,51.44
2018-04-26T08:51:51.237Z,49.81
2018-04-26T08:52:51.477Z,49.21
2018-04-26T08:53:51.723Z,51.39
2018-04-26T08:54:51.971Z,51.34
2018-04-26T08:55:52.220Z,50.29
2018-04-26T08:56:52.463Z,48.90
2018-04-26T08:57:52.712Z,49.50
2018-04-26T08:58:52.959Z,50.24
2018-04-26T08:59:53.207Z,51.22
2018-04-26T09:00:53.455Z,50.26
2018-04-26T09:01:53.703Z,51.22
2018-04-26T09:02:53.950Z,51.39
2018-04-26T09:03:54.201Z,51.34
2018-04-26T09:04:54.446Z,49.52
2018-04-26T09:05:54.693Z,51.22
2018-04-26T09:06:54.942Z,51.89
2018-04-26T09:07:55.189Z,51.28
2018-04-26T09:08:55.438Z,49.71
2018-04-26T09:09:55.687Z,48.57
2018-04-26T09:10:55.935Z,49.33
2018-04-26T09:11:56.184Z,50.10
2018-04-26T09:12:56.431Z,49.81
2018-04-26T09:13:56.681Z,49.91
2018-04-26T09:14:56.928Z,49.33
2018-04-26T09:15:57.270Z,48.09
2018-04-26T09:16:57.428Z,48.11
2018-04-26T09:17:57.676Z,47.03
2018-04-26T09:18:57.925Z,45.78
2018-04-26T09:19:58.175Z,46.08
2018-04-26T09:20:58.425Z,47.80
2018-04-26T09:21:58.741Z,48.11
2018-04-26T09:22:58.922Z,47.58
2018-04-26T09:23:59.172Z,47.25
2018-04-26T09:24:59.421Z,48.40
2018-04-26T09:25:59.672Z,48.40
2018-04-26T09:26:59.924Z,48.42
2018-04-26T09:28:00.176Z,49.91
2018-04-26T09:29:00.422Z,48.09
2018-04-26T09:30:00.683Z,48.28
2018-04-26T09:31:00.920Z,51.07
2018-04-26T09:32:01.159Z,53.08
2018-04-26T09:33:01.409Z,53.63
2018-04-26T09:34:01.659Z,54.44
2018-04-26T09:35:01.909Z,56.35
2018-04-26T09:36:02.158Z,57.31
2018-04-26T09:37:02.408Z,56.41
2018-04-26T09:38:02.656Z,57.24
2018-04-26T09:39:02.909Z,58.29
2018-04-26T09:40:03.158Z,59.38
2018-04-26T09:41:03.403Z,58.36
2018-04-26T09:42:03.652Z,57.18
2018-04-26T09:43:03.898Z,57.72
2018-04-26T09:44:04.148Z,59.53
2018-04-26T09:45:04.394Z,57.71
2018-04-26T09:46:04.641Z,53.02
2018-04-26T09:47:04.885Z,50.17
2018-04-26T09:48:05.132Z,49.52
2018-04-26T09:49:05.380Z,48.88
2018-04-26T09:50:05.630Z,46.89
2018-04-26T09:51:05.878Z,46.14
2018-04-26T09:52:06.122Z,46.58
2018-04-26T09:53:06.374Z,46.91
2018-04-26T09:54:06.615Z,45.98
2018-04-26T09:55:06.864Z,44.23
2018-04-26T09:56:07.112Z,44.63
2018-04-26T09:57:07.362Z,44.23
2018-04-26T09:58:07.609Z,44.87
2018-04-26T09:59:07.857Z,45.57
2018-04-26T10:00:08.105Z,44.27
2018-04-26T10:01:08.358Z,43.02
2018-04-26T10:02:08.603Z,43.53
2018-04-26T10:03:08.852Z,44.80
2018-04-26T10:04:09.101Z,47.30
2018-04-26T10:05:09.351Z,49.95
2018-04-26T10:06:09.602Z,51.53
2018-04-26T10:07:09.851Z,54.39
2018-04-26T10:08:10.103Z,56.09
2018-04-26T10:09:10.347Z,56.73
2018-04-26T10:10:10.596Z,58.61
2018-04-26T10:11:10.845Z,60.78
2018-04-26T10:12:11.097Z,63.60
2018-04-26T10:13:11.349Z,68.40
2018-04-26T10:14:11.594Z,72.31
2018-04-26T10:15:11.853Z,76.27
2018-04-26T10:16:12.085Z,76.84
2018-04-26T10:17:12.331Z,77.32
2018-04-26T10:18:12.578Z,77.42
2018-04-26T10:19:12.823Z,76.50
2018-04-26T10:20:13.069Z,78.03
2018-04-26T10:21:13.389Z,76.69
2018-04-26T10:22:13.556Z,76.21
2018-04-26T10:23:13.800Z,77.36
2018-04-26T10:24:14.045Z,78.03
2018-04-26T10:25:14.288Z,76.16
2018-04-26T10:26:14.530Z,74.88
2018-04-26T10:27:14.775Z,75.45
2018-04-26T10:28:15.020Z,76.37
2018-04-26T10:29:15.263Z,78.23
2018-04-26T10:30:15.506Z,79.57
2018-04-26T10:31:15.752Z,80.66
2018-04-26T10:32:15.996Z,83.14
2018-04-26T10:33:16.239Z,84.14
2018-04-26T10:34:16.486Z,84.91
2018-04-26T10:35:16.730Z,85.86
2018-04-26T10:36:16.972Z,85.38
2018-04-26T10:37:17.213Z,85.28
2018-04-26T10:38:17.455Z,84.81
2018-04-26T10:39:17.697Z,86.90
2018-04-26T10:40:17.938Z,86.71
2018-04-26T10:41:18.179Z,86.28
2018-04-26T10:42:18.420Z,86.18
2018-04-26T10:43:18.661Z,85.42
2018-04-26T10:44:18.988Z,84.33
2018-04-26T10:45:19.143Z,82.61
2018-04-26T10:46:19.383Z,82.50
2018-04-26T10:47:19.622Z,78.59
2018-04-26T10:48:19.864Z,74.98
2018-04-26T10:49:20.103Z,70.58
2018-04-26T10:50:20.345Z,71.62
2018-04-26T10:51:20.586Z,73.30
2018-04-26T10:52:20.828Z,74.98
2018-04-26T10:53:21.068Z,76.50
2018-04-26T10:54:21.310Z,76.94
2018-04-26T10:55:21.551Z,78.46
2018-04-26T10:56:21.793Z,80.84
2018-04-26T10:57:22.035Z,79.99
2018-04-26T10:58:22.277Z,79.94
2018-04-26T10:59:22.519Z,79.41
2018-04-26T11:00:22.762Z,80.90
2018-04-26T11:01:23.004Z,80.08
2018-04-26T11:02:23.245Z,81.13
2018-04-26T11:03:23.491Z,79.47
2018-04-26T11:04:23.735Z,80.23
2018-04-26T11:05:23.976Z,79.28
2018-04-26T11:06:24.218Z,79.94
2018-04-26T11:07:24.459Z,80.80
2018-04-26T11:08:24.702Z,81.28
2018-04-26T11:09:24.943Z,83.28
2018-04-26T11:10:25.184Z,83.85
2018-04-26T11:11:25.461Z,82.80
2018-04-26T11:12:25.667Z,81.85
2018-04-26T11:13:25.909Z,80.84
2018-04-26T11:14:26.165Z,78.56
2018-04-26T11:15:26.423Z,76.03
2018-04-26T11:16:26.645Z,75.26
2018-04-26T11:17:26.871Z,74.25
2018-04-26T11:18:27.113Z,75.30
2018-04-26T11:19:27.357Z,73.28
2018-04-26T11:20:27.599Z,69.56
2018-04-26T11:21:27.841Z,66.99
2018-04-26T11:22:28.082Z,66.38
2018-04-26T11:23:28.412Z,67.46
2018-04-26T11:24:28.716Z,65.14
2018-04-26T11:25:28.902Z,61.69
2018-04-26T11:26:29.147Z,60.61
2018-04-26T11:27:29.504Z,58.75
2018-04-26T11:28:29.751Z,55.27
2018-04-26T11:29:29.994Z,55.52
2018-04-26T11:30:30.239Z,53.99
2018-04-26T11:31:30.485Z,51.54
2018-04-26T11:32:30.730Z,50.32
2018-04-26T11:33:30.977Z,49.79
2018-04-26T11:34:31.221Z,47.89
2018-04-26T11:35:31.469Z,45.97
2018-04-26T11:36:31.785Z,44.70
2018-04-26T11:37:32.014Z,46.33
2018-04-26T11:38:32.453Z,47.05
2018-04-26T11:39:32.593Z,48.28
2018-04-26T11:40:32.842Z,48.66
2018-04-26T11:41:33.093Z,48.81
2018-04-26T11:42:33.388Z,49.60
2018-04-26T11:43:33.635Z,46.72
2018-04-26T11:44:33.963Z,46.93
2018-04-26T11:45:34.337Z,45.87
2018-04-26T11:46:34.635Z,45.42
2018-04-26T11:47:34.999Z,47.32
2018-04-26T11:48:35.355Z,47.44
2018-04-26T11:49:35.606Z,46.28
2018-04-26T11:50:35.857Z,47.34
2018-04-26T11:51:36.110Z,44.73
2018-04-26T11:52:36.443Z,45.11
2018-04-26T11:53:36.689Z,47.13
2018-04-26T11:54:36.940Z,47.17
2018-04-26T11:55:37.191Z,46.74
2018-04-26T11:56:37.443Z,46.50
2018-04-26T11:57:37.697Z,45.81
2018-04-26T11:58:37.948Z,45.61
2018-04-26T11:59:38.200Z,47.37
2018-04-26T12:00:38.451Z,49.93
2018-04-26T12:01:38.710Z,49.96
2018-04-26T12:02:39.015Z,50.03
2018-04-26T12:03:39.206Z,50.96
2018-04-26T12:04:39.457Z,51.37
2018-04-26T12:05:39.708Z,50.63
2018-04-26T12:06:39.958Z,50.56
2018-04-26T12:07:40.262Z,49.57
2018-04-26T12:08:40.459Z,48.52
2018-04-26T12:09:40.760Z,45.32
2018-04-26T12:10:41.010Z,43.23
2018-04-26T12:11:41.262Z,43.93
2018-04-26T12:12:41.517Z,45.29
2018-04-26T12:13:41.771Z,44.26
2018-04-26T12:14:42.023Z,43.40
2018-04-26T12:15:42.272Z,41.76
2018-04-26T12:16:42.523Z,42.56
2018-04-26T12:17:42.774Z,46.07
2018-04-26T12:18:43.026Z,48.21
2018-04-26T12:19:43.284Z,49.84
2018-04-26T12:20:43.527Z,48.28
2018-04-26T12:21:43.779Z,47.10
2018-04-26T12:22:44.028Z,48.75
2018-04-26T12:23:44.282Z,51.24
2018-04-26T12:24:44.534Z,54.94
2018-04-26T12:25:44.787Z,56.54
2018-04-26T12:26:45.037Z,58.73
2018-04-26T12:27:45.290Z,59.12
2018-04-26T12:28:45.535Z,59.19
2018-04-26T12:29:45.785Z,60.71
2018-04-26T12:30:46.033Z,63.76
2018-04-26T12:31:46.280Z,65.48
2018-04-26T12:32:46.527Z,65.26
2018-04-26T12:33:46.775Z,65.07
2018-04-26T12:34:47.022Z,67.68
2018-04-26T12:35:47.271Z,66.95
2018-04-26T12:36:47.518Z,65.77
2018-04-26T12:37:47.764Z,62.17
2018-04-26T12:38:48.011Z,56.79
2018-04-26T12:39:48.260Z,53.20
2018-04-26T12:40:48.510Z,50.13
2018-04-26T12:41:48.750Z,48.93
2018-04-26T12:42:49.001Z,48.97
2018-04-26T12:43:49.246Z,48.40
2018-04-26T12:44:49.507Z,48.61
2018-04-26T12:45:49.741Z,47.66
2018-04-26T12:46:49.986Z,49.12
2018-04-26T12:47:50.235Z,48.61
2018-04-26T12:48:50.483Z,48.69
2018-04-26T12:49:50.731Z,46.02
2018-04-26T12:50:50.987Z,43.07
2018-04-26T12:51:51.237Z,43.26
2018-04-26T12:52:51.483Z,42.41
2018-04-26T12:53:51.737Z,40.33
2018-04-26T12:54:51.983Z,41.10
2018-04-26T12:55:52.233Z,41.94